sensor_id;sensor_type;location;lat;lon;timestamp;temperature;humidity
10968;DHT22;5536;49.602;10.980;2023-07-24T00:02:05;19.70;99.90
10968;DHT22;5536;49.602;10.980;2023-07-24T00:04:32;19.90;99.90
10968;DHT22;5536;49.602;10.980;2023-07-24T00:06:59;20.00;99.90
10968;DHT22;5536;49.602;10.980;2023-07-24T00:09:26;20.10;99.90
10968;DHT22;5536;49.602;10.980;2023-07-24T00:11:54;20.10;99.90
10968;DHT22;5536;49.602;10.980;2023-07-24T00:14:22;20.10;99.90
10968;DHT22;5536;49.602;10.980;2023-07-24T00:16:49;20.00;99.90
10968;DHT22;5536;49.602;10.980;2023-07-24T00:19:16;19.90;99.90
10968;DHT22;5536;49.602;10.980;2023-07-24T00:21:43;20.00;99.90
10968;DHT22;5536;49.602;10.980;2023-07-24T00:24:10;19.90;99.90
10968;DHT22;5536;49.602;10.980;2023-07-24T00:26:37;19.90;99.90
10968;DHT22;5536;49.602;10.980;2023-07-24T00:29:04;19.80;99.90
10968;DHT22;5536;49.602;10.980;2023-07-24T00:31:33;19.80;99.90
10968;DHT22;5536;49.602;10.980;2023-07-24T00:34:00;19.70;99.90
10968;DHT22;5536;49.602;10.980;2023-07-24T00:36:26;19.70;99.90
10968;DHT22;5536;49.602;10.980;2023-07-24T00:38:53;19.60;99.90
10968;DHT22;5536;49.602;10.980;2023-07-24T00:41:20;19.50;99.90
10968;DHT22;5536;49.602;10.980;2023-07-24T00:43:47;19.30;99.90
10968;DHT22;5536;49.602;10.980;2023-07-24T00:46:14;19.20;99.90
10968;DHT22;5536;49.602;10.980;2023-07-24T00:48:43;19.10;99.90
10968;DHT22;5536;49.602;10.980;2023-07-24T00:51:10;18.80;99.90
10968;DHT22;5536;49.602;10.980;2023-07-24T00:53:37;18.50;99.90
10968;DHT22;5536;49.602;10.980;2023-07-24T00:56:04;18.30;99.90
10968;DHT22;5536;49.602;10.980;2023-07-24T00:58:33;18.00;99.90
10968;DHT22;5536;49.602;10.980;2023-07-24T01:01:02;17.90;99.90
10968;DHT22;5536;49.602;10.980;2023-07-24T01:03:32;17.80;99.90
10968;DHT22;5536;49.602;10.980;2023-07-24T01:06:02;17.80;99.90
10968;DHT22;5536;49.602;10.980;2023-07-24T01:08:29;17.70;99.90
10968;DHT22;5536;49.602;10.980;2023-07-24T01:10:57;17.70;99.90
10968;DHT22;5536;49.602;10.980;2023-07-24T01:13:31;17.70;99.90
10968;DHT22;5536;49.602;10.980;2023-07-24T01:16:04;17.60;99.90
10968;DHT22;5536;49.602;10.980;2023-07-24T01:18:34;17.50;99.90
10968;DHT22;5536;49.602;10.980;2023-07-24T01:21:08;17.50;99.90
10968;DHT22;5536;49.602;10.980;2023-07-24T01:23:45;17.60;99.90
10968;DHT22;5536;49.602;10.980;2023-07-24T01:26:21;17.40;99.90
10968;DHT22;5536;49.602;10.980;2023-07-24T01:28:49;17.20;99.90
10968;DHT22;5536;49.602;10.980;2023-07-24T01:31:16;17.20;99.90
10968;DHT22;5536;49.602;10.980;2023-07-24T01:33:43;17.10;99.90
10968;DHT22;5536;49.602;10.980;2023-07-24T01:36:11;17.20;99.90
10968;DHT22;5536;49.602;10.980;2023-07-24T01:38:39;17.20;99.90
10968;DHT22;5536;49.602;10.980;2023-07-24T01:41:07;17.10;99.90
10968;DHT22;5536;49.602;10.980;2023-07-24T01:43:35;17.10;99.90
10968;DHT22;5536;49.602;10.980;2023-07-24T01:46:02;17.10;99.90
10968;DHT22;5536;49.602;10.980;2023-07-24T01:48:29;17.00;99.90
10968;DHT22;5536;49.602;10.980;2023-07-24T01:50:56;17.20;99.90
10968;DHT22;5536;49.602;10.980;2023-07-24T01:53:23;17.30;99.90
10968;DHT22;5536;49.602;10.980;2023-07-24T01:55:50;17.40;99.90
10968;DHT22;5536;49.602;10.980;2023-07-24T01:58:17;17.40;99.90
10968;DHT22;5536;49.602;10.980;2023-07-24T02:00:45;17.40;99.90
10968;DHT22;5536;49.602;10.980;2023-07-24T02:03:12;17.40;99.90
10968;DHT22;5536;49.602;10.980;2023-07-24T02:05:39;17.30;99.90
10968;DHT22;5536;49.602;10.980;2023-07-24T02:08:06;17.40;99.90
10968;DHT22;5536;49.602;10.980;2023-07-24T02:10:36;17.30;99.90
10968;DHT22;5536;49.602;10.980;2023-07-24T02:13:03;17.30;99.90
10968;DHT22;5536;49.602;10.980;2023-07-24T02:15:32;17.20;99.90
10968;DHT22;5536;49.602;10.980;2023-07-24T02:18:01;17.20;99.90
10968;DHT22;5536;49.602;10.980;2023-07-24T02:20:28;17.30;99.90
10968;DHT22;5536;49.602;10.980;2023-07-24T02:22:55;17.20;99.90
10968;DHT22;5536;49.602;10.980;2023-07-24T02:25:22;17.20;99.90
10968;DHT22;5536;49.602;10.980;2023-07-24T02:27:49;17.10;99.90
10968;DHT22;5536;49.602;10.980;2023-07-24T02:30:16;17.00;99.90
10968;DHT22;5536;49.602;10.980;2023-07-24T02:32:43;17.00;99.90
10968;DHT22;5536;49.602;10.980;2023-07-24T02:35:11;16.90;99.90
10968;DHT22;5536;49.602;10.980;2023-07-24T02:37:38;16.90;99.90
10968;DHT22;5536;49.602;10.980;2023-07-24T02:40:07;16.90;99.90
10968;DHT22;5536;49.602;10.980;2023-07-24T02:42:34;17.00;99.90
10968;DHT22;5536;49.602;10.980;2023-07-24T02:45:01;17.10;99.90
10968;DHT22;5536;49.602;10.980;2023-07-24T02:47:29;17.20;99.90
10968;DHT22;5536;49.602;10.980;2023-07-24T02:49:56;17.30;99.90
10968;DHT22;5536;49.602;10.980;2023-07-24T02:52:24;17.30;99.90
10968;DHT22;5536;49.602;10.980;2023-07-24T02:54:51;17.10;99.90
10968;DHT22;5536;49.602;10.980;2023-07-24T02:57:18;17.00;99.90
10968;DHT22;5536;49.602;10.980;2023-07-24T02:59:45;16.90;99.90
10968;DHT22;5536;49.602;10.980;2023-07-24T03:02:13;16.90;99.90
10968;DHT22;5536;49.602;10.980;2023-07-24T03:04:40;16.80;99.90
10968;DHT22;5536;49.602;10.980;2023-07-24T03:07:06;16.80;99.90
10968;DHT22;5536;49.602;10.980;2023-07-24T03:09:35;16.90;99.90
10968;DHT22;5536;49.602;10.980;2023-07-24T03:12:02;17.00;99.90
10968;DHT22;5536;49.602;10.980;2023-07-24T03:14:29;17.10;99.90
10968;DHT22;5536;49.602;10.980;2023-07-24T03:16:56;17.30;99.90
10968;DHT22;5536;49.602;10.980;2023-07-24T03:19:23;17.30;99.90
10968;DHT22;5536;49.602;10.980;2023-07-24T03:21:50;17.30;99.90
10968;DHT22;5536;49.602;10.980;2023-07-24T03:24:17;17.30;99.90
10968;DHT22;5536;49.602;10.980;2023-07-24T03:26:45;17.30;99.90
10968;DHT22;5536;49.602;10.980;2023-07-24T03:29:13;17.20;99.90
10968;DHT22;5536;49.602;10.980;2023-07-24T03:31:39;17.10;99.90
10968;DHT22;5536;49.602;10.980;2023-07-24T03:34:06;17.30;99.90
10968;DHT22;5536;49.602;10.980;2023-07-24T03:36:33;17.40;99.90
10968;DHT22;5536;49.602;10.980;2023-07-24T03:39:01;17.40;99.90
10968;DHT22;5536;49.602;10.980;2023-07-24T03:41:28;17.40;99.90
10968;DHT22;5536;49.602;10.980;2023-07-24T03:43:56;17.50;99.90
10968;DHT22;5536;49.602;10.980;2023-07-24T03:46:24;17.40;99.90
10968;DHT22;5536;49.602;10.980;2023-07-24T03:48:51;17.20;99.90
10968;DHT22;5536;49.602;10.980;2023-07-24T03:51:18;17.20;99.90
10968;DHT22;5536;49.602;10.980;2023-07-24T03:53:45;17.30;99.90
10968;DHT22;5536;49.602;10.980;2023-07-24T03:56:12;17.30;99.90
10968;DHT22;5536;49.602;10.980;2023-07-24T03:58:39;17.40;99.90
10968;DHT22;5536;49.602;10.980;2023-07-24T04:01:08;17.40;99.90
10968;DHT22;5536;49.602;10.980;2023-07-24T04:03:35;17.40;99.90
10968;DHT22;5536;49.602;10.980;2023-07-24T04:06:02;17.40;99.90
10968;DHT22;5536;49.602;10.980;2023-07-24T04:08:29;17.40;99.90
10968;DHT22;5536;49.602;10.980;2023-07-24T04:10:56;17.30;99.90
10968;DHT22;5536;49.602;10.980;2023-07-24T04:13:23;17.20;99.90
10968;DHT22;5536;49.602;10.980;2023-07-24T04:15:50;17.10;99.90
10968;DHT22;5536;49.602;10.980;2023-07-24T04:18:18;17.10;99.90
10968;DHT22;5536;49.602;10.980;2023-07-24T04:20:45;17.10;99.90
10968;DHT22;5536;49.602;10.980;2023-07-24T04:23:12;17.20;99.90
10968;DHT22;5536;49.602;10.980;2023-07-24T04:25:39;17.20;99.90
10968;DHT22;5536;49.602;10.980;2023-07-24T04:28:06;17.20;99.90
10968;DHT22;5536;49.602;10.980;2023-07-24T04:30:33;17.30;99.90
10968;DHT22;5536;49.602;10.980;2023-07-24T04:33:00;17.40;99.90
10968;DHT22;5536;49.602;10.980;2023-07-24T04:35:28;17.40;99.90
10968;DHT22;5536;49.602;10.980;2023-07-24T04:37:55;17.30;99.90
10968;DHT22;5536;49.602;10.980;2023-07-24T04:40:23;17.40;99.90
10968;DHT22;5536;49.602;10.980;2023-07-24T04:42:50;17.50;99.90
10968;DHT22;5536;49.602;10.980;2023-07-24T04:45:16;17.60;99.90
10968;DHT22;5536;49.602;10.980;2023-07-24T04:47:44;17.70;99.90
10968;DHT22;5536;49.602;10.980;2023-07-24T04:50:11;18.00;99.90
10968;DHT22;5536;49.602;10.980;2023-07-24T04:52:39;18.10;99.90
10968;DHT22;5536;49.602;10.980;2023-07-24T04:55:07;18.20;99.90
10968;DHT22;5536;49.602;10.980;2023-07-24T04:57:33;18.20;99.90
10968;DHT22;5536;49.602;10.980;2023-07-24T05:00:00;18.10;99.90
10968;DHT22;5536;49.602;10.980;2023-07-24T05:02:27;18.00;99.90
10968;DHT22;5536;49.602;10.980;2023-07-24T05:04:54;17.90;99.90
10968;DHT22;5536;49.602;10.980;2023-07-24T05:07:21;17.80;99.90
10968;DHT22;5536;49.602;10.980;2023-07-24T05:09:49;17.60;99.90
10968;DHT22;5536;49.602;10.980;2023-07-24T05:12:16;17.60;99.90
10968;DHT22;5536;49.602;10.980;2023-07-24T05:14:43;17.60;99.90
10968;DHT22;5536;49.602;10.980;2023-07-24T05:17:09;17.50;99.90
10968;DHT22;5536;49.602;10.980;2023-07-24T05:19:36;17.60;99.90
10968;DHT22;5536;49.602;10.980;2023-07-24T05:22:04;17.70;99.90
10968;DHT22;5536;49.602;10.980;2023-07-24T05:24:31;17.70;99.90
10968;DHT22;5536;49.602;10.980;2023-07-24T05:26:59;17.70;99.90
10968;DHT22;5536;49.602;10.980;2023-07-24T05:29:26;17.70;99.90
10968;DHT22;5536;49.602;10.980;2023-07-24T05:31:53;17.60;99.90
10968;DHT22;5536;49.602;10.980;2023-07-24T05:34:21;17.60;99.90
10968;DHT22;5536;49.602;10.980;2023-07-24T05:36:48;17.70;99.90
10968;DHT22;5536;49.602;10.980;2023-07-24T05:39:15;17.70;99.90
10968;DHT22;5536;49.602;10.980;2023-07-24T05:41:42;17.80;99.90
10968;DHT22;5536;49.602;10.980;2023-07-24T05:44:10;17.90;99.90
10968;DHT22;5536;49.602;10.980;2023-07-24T05:46:37;17.90;99.90
10968;DHT22;5536;49.602;10.980;2023-07-24T05:49:04;18.10;99.90
10968;DHT22;5536;49.602;10.980;2023-07-24T05:51:31;18.10;99.90
10968;DHT22;5536;49.602;10.980;2023-07-24T05:53:58;18.20;99.90
10968;DHT22;5536;49.602;10.980;2023-07-24T05:56:24;18.20;99.90
10968;DHT22;5536;49.602;10.980;2023-07-24T05:58:51;18.30;99.90
10968;DHT22;5536;49.602;10.980;2023-07-24T06:01:20;18.50;99.90
10968;DHT22;5536;49.602;10.980;2023-07-24T06:03:47;18.60;99.90
10968;DHT22;5536;49.602;10.980;2023-07-24T06:06:14;18.70;99.90
10968;DHT22;5536;49.602;10.980;2023-07-24T06:08:41;18.70;99.90
10968;DHT22;5536;49.602;10.980;2023-07-24T06:11:08;18.90;99.90
10968;DHT22;5536;49.602;10.980;2023-07-24T06:13:35;19.10;99.90
10968;DHT22;5536;49.602;10.980;2023-07-24T06:16:03;19.20;99.90
10968;DHT22;5536;49.602;10.980;2023-07-24T06:18:31;19.30;99.90
10968;DHT22;5536;49.602;10.980;2023-07-24T06:20:58;19.30;99.90
10968;DHT22;5536;49.602;10.980;2023-07-24T06:23:25;19.20;99.90
10968;DHT22;5536;49.602;10.980;2023-07-24T06:25:52;19.20;99.90
10968;DHT22;5536;49.602;10.980;2023-07-24T06:28:19;19.20;99.90
10968;DHT22;5536;49.602;10.980;2023-07-24T06:30:46;19.20;99.90
10968;DHT22;5536;49.602;10.980;2023-07-24T06:33:13;19.20;99.90
10968;DHT22;5536;49.602;10.980;2023-07-24T06:35:41;19.20;99.90
10968;DHT22;5536;49.602;10.980;2023-07-24T06:38:08;19.20;99.90
10968;DHT22;5536;49.602;10.980;2023-07-24T06:40:35;19.10;99.90
10968;DHT22;5536;49.602;10.980;2023-07-24T06:43:02;19.20;99.90
10968;DHT22;5536;49.602;10.980;2023-07-24T06:45:29;19.20;99.90
10968;DHT22;5536;49.602;10.980;2023-07-24T06:47:57;19.30;99.90
10968;DHT22;5536;49.602;10.980;2023-07-24T06:50:24;19.30;99.90
10968;DHT22;5536;49.602;10.980;2023-07-24T06:52:52;19.40;99.90
10968;DHT22;5536;49.602;10.980;2023-07-24T06:55:19;19.50;99.90
10968;DHT22;5536;49.602;10.980;2023-07-24T06:57:47;19.70;99.90
10968;DHT22;5536;49.602;10.980;2023-07-24T07:00:14;19.70;99.90
10968;DHT22;5536;49.602;10.980;2023-07-24T07:02:41;19.80;99.90
10968;DHT22;5536;49.602;10.980;2023-07-24T07:05:08;19.90;99.90
10968;DHT22;5536;49.602;10.980;2023-07-24T07:07:35;20.00;99.90
10968;DHT22;5536;49.602;10.980;2023-07-24T07:10:05;20.10;99.90
10968;DHT22;5536;49.602;10.980;2023-07-24T07:12:32;20.20;99.90
10968;DHT22;5536;49.602;10.980;2023-07-24T07:14:59;20.30;99.90
10968;DHT22;5536;49.602;10.980;2023-07-24T07:17:26;20.30;99.90
10968;DHT22;5536;49.602;10.980;2023-07-24T07:19:53;20.40;99.90
10968;DHT22;5536;49.602;10.980;2023-07-24T07:22:22;20.20;99.90
10968;DHT22;5536;49.602;10.980;2023-07-24T07:24:49;20.30;99.90
10968;DHT22;5536;49.602;10.980;2023-07-24T07:27:18;20.30;99.90
10968;DHT22;5536;49.602;10.980;2023-07-24T07:29:45;20.30;99.90
10968;DHT22;5536;49.602;10.980;2023-07-24T07:32:12;20.40;99.90
10968;DHT22;5536;49.602;10.980;2023-07-24T07:34:40;20.30;99.90
10968;DHT22;5536;49.602;10.980;2023-07-24T07:37:07;20.20;99.90
10968;DHT22;5536;49.602;10.980;2023-07-24T07:39:34;20.20;99.90
10968;DHT22;5536;49.602;10.980;2023-07-24T07:42:01;20.30;99.90
10968;DHT22;5536;49.602;10.980;2023-07-24T07:44:30;20.30;99.90
10968;DHT22;5536;49.602;10.980;2023-07-24T07:46:57;20.30;99.90
10968;DHT22;5536;49.602;10.980;2023-07-24T07:49:23;20.40;99.90
10968;DHT22;5536;49.602;10.980;2023-07-24T07:51:50;20.50;99.90
10968;DHT22;5536;49.602;10.980;2023-07-24T07:54:17;20.50;99.90
10968;DHT22;5536;49.602;10.980;2023-07-24T07:56:45;20.50;99.90
10968;DHT22;5536;49.602;10.980;2023-07-24T07:59:12;20.50;99.90
10968;DHT22;5536;49.602;10.980;2023-07-24T08:01:41;20.60;99.90
10968;DHT22;5536;49.602;10.980;2023-07-24T08:04:08;20.60;99.90
10968;DHT22;5536;49.602;10.980;2023-07-24T08:06:35;20.70;99.90
10968;DHT22;5536;49.602;10.980;2023-07-24T08:09:02;20.70;99.90
10968;DHT22;5536;49.602;10.980;2023-07-24T08:11:29;20.70;99.90
10968;DHT22;5536;49.602;10.980;2023-07-24T08:13:56;20.70;99.90
10968;DHT22;5536;49.602;10.980;2023-07-24T08:16:24;20.80;99.90
10968;DHT22;5536;49.602;10.980;2023-07-24T08:18:52;20.80;99.90
10968;DHT22;5536;49.602;10.980;2023-07-24T08:21:19;20.90;99.90
10968;DHT22;5536;49.602;10.980;2023-07-24T08:23:46;21.00;99.90
10968;DHT22;5536;49.602;10.980;2023-07-24T08:26:13;21.20;99.90
10968;DHT22;5536;49.602;10.980;2023-07-24T08:28:40;21.30;99.90
10968;DHT22;5536;49.602;10.980;2023-07-24T08:31:08;21.50;99.90
10968;DHT22;5536;49.602;10.980;2023-07-24T08:33:35;21.60;99.90
10968;DHT22;5536;49.602;10.980;2023-07-24T08:36:05;21.70;99.90
10968;DHT22;5536;49.602;10.980;2023-07-24T08:38:33;21.80;99.90
10968;DHT22;5536;49.602;10.980;2023-07-24T08:43:31;21.80;99.90
10968;DHT22;5536;49.602;10.980;2023-07-24T08:46:00;21.80;99.90
10968;DHT22;5536;49.602;10.980;2023-07-24T08:48:29;21.90;99.90
10968;DHT22;5536;49.602;10.980;2023-07-24T08:50:59;21.90;99.90
10968;DHT22;5536;49.602;10.980;2023-07-24T08:53:29;22.00;99.90
10968;DHT22;5536;49.602;10.980;2023-07-24T08:55:57;22.10;99.90
10968;DHT22;5536;49.602;10.980;2023-07-24T08:58:25;22.10;99.90
10968;DHT22;5536;49.602;10.980;2023-07-24T09:00:52;22.20;99.90
10968;DHT22;5536;49.602;10.980;2023-07-24T09:03:20;22.20;99.90
10968;DHT22;5536;49.602;10.980;2023-07-24T09:05:47;22.30;99.90
10968;DHT22;5536;49.602;10.980;2023-07-24T09:08:15;22.50;99.90
10968;DHT22;5536;49.602;10.980;2023-07-24T09:10:44;22.40;99.90
10968;DHT22;5536;49.602;10.980;2023-07-24T09:13:12;22.50;99.90
10968;DHT22;5536;49.602;10.980;2023-07-24T09:15:41;22.60;99.90
10968;DHT22;5536;49.602;10.980;2023-07-24T09:18:09;22.70;99.90
10968;DHT22;5536;49.602;10.980;2023-07-24T09:20:39;22.80;99.90
10968;DHT22;5536;49.602;10.980;2023-07-24T09:23:07;22.90;99.90
10968;DHT22;5536;49.602;10.980;2023-07-24T09:25:36;22.80;99.90
10968;DHT22;5536;49.602;10.980;2023-07-24T09:28:13;22.80;99.90
10968;DHT22;5536;49.602;10.980;2023-07-24T09:30:42;22.70;99.90
10968;DHT22;5536;49.602;10.980;2023-07-24T09:33:09;22.80;99.90
10968;DHT22;5536;49.602;10.980;2023-07-24T09:35:36;22.90;99.90
10968;DHT22;5536;49.602;10.980;2023-07-24T09:38:05;22.90;99.90
10968;DHT22;5536;49.602;10.980;2023-07-24T09:40:40;22.80;99.90
10968;DHT22;5536;49.602;10.980;2023-07-24T09:43:22;22.80;99.90
10968;DHT22;5536;49.602;10.980;2023-07-24T09:45:51;22.70;99.90
10968;DHT22;5536;49.602;10.980;2023-07-24T09:48:19;22.70;99.90
10968;DHT22;5536;49.602;10.980;2023-07-24T09:50:48;22.60;99.90
10968;DHT22;5536;49.602;10.980;2023-07-24T09:53:18;22.60;99.90
10968;DHT22;5536;49.602;10.980;2023-07-24T09:55:51;22.50;99.90
10968;DHT22;5536;49.602;10.980;2023-07-24T09:58:23;22.10;99.90
10968;DHT22;5536;49.602;10.980;2023-07-24T10:00:51;21.70;99.90
10968;DHT22;5536;49.602;10.980;2023-07-24T10:03:18;21.30;99.90
10968;DHT22;5536;49.602;10.980;2023-07-24T10:05:46;20.90;99.90
10968;DHT22;5536;49.602;10.980;2023-07-24T10:08:15;20.40;99.90
10968;DHT22;5536;49.602;10.980;2023-07-24T10:10:42;20.20;99.90
10968;DHT22;5536;49.602;10.980;2023-07-24T10:13:11;20.10;99.90
10968;DHT22;5536;49.602;10.980;2023-07-24T10:15:42;20.00;99.90
10968;DHT22;5536;49.602;10.980;2023-07-24T10:18:09;20.10;99.90
10968;DHT22;5536;49.602;10.980;2023-07-24T10:20:38;20.10;99.90
10968;DHT22;5536;49.602;10.980;2023-07-24T10:23:06;20.10;99.90
10968;DHT22;5536;49.602;10.980;2023-07-24T10:25:36;20.00;99.90
10968;DHT22;5536;49.602;10.980;2023-07-24T10:28:04;20.20;99.90
10968;DHT22;5536;49.602;10.980;2023-07-24T10:30:34;20.10;99.90
10968;DHT22;5536;49.602;10.980;2023-07-24T10:33:07;20.30;99.90
10968;DHT22;5536;49.602;10.980;2023-07-24T10:35:42;20.40;99.90
10968;DHT22;5536;49.602;10.980;2023-07-24T10:38:09;20.60;99.90
10968;DHT22;5536;49.602;10.980;2023-07-24T10:40:37;20.70;99.90
10968;DHT22;5536;49.602;10.980;2023-07-24T10:43:05;20.70;99.90
10968;DHT22;5536;49.602;10.980;2023-07-24T10:45:45;20.60;99.90
10968;DHT22;5536;49.602;10.980;2023-07-24T10:48:14;20.70;99.90
10968;DHT22;5536;49.602;10.980;2023-07-24T10:50:43;20.80;99.90
10968;DHT22;5536;49.602;10.980;2023-07-24T10:53:11;20.80;99.90
10968;DHT22;5536;49.602;10.980;2023-07-24T10:55:38;20.80;99.90
10968;DHT22;5536;49.602;10.980;2023-07-24T10:58:10;20.80;99.90
10968;DHT22;5536;49.602;10.980;2023-07-24T11:00:39;20.80;99.90
10968;DHT22;5536;49.602;10.980;2023-07-24T11:03:09;20.80;99.90
10968;DHT22;5536;49.602;10.980;2023-07-24T11:05:39;20.80;99.90
10968;DHT22;5536;49.602;10.980;2023-07-24T11:08:09;20.80;99.90
10968;DHT22;5536;49.602;10.980;2023-07-24T11:10:44;20.90;99.90
10968;DHT22;5536;49.602;10.980;2023-07-24T11:13:12;20.80;99.90
10968;DHT22;5536;49.602;10.980;2023-07-24T11:15:39;20.80;99.90
10968;DHT22;5536;49.602;10.980;2023-07-24T11:18:06;20.80;99.90
10968;DHT22;5536;49.602;10.980;2023-07-24T11:20:37;20.80;99.90
10968;DHT22;5536;49.602;10.980;2023-07-24T11:23:04;20.80;99.90
10968;DHT22;5536;49.602;10.980;2023-07-24T11:25:32;20.80;99.90
10968;DHT22;5536;49.602;10.980;2023-07-24T11:27:58;20.80;99.90
10968;DHT22;5536;49.602;10.980;2023-07-24T11:30:25;20.80;99.90
10968;DHT22;5536;49.602;10.980;2023-07-24T11:32:52;20.80;99.90
10968;DHT22;5536;49.602;10.980;2023-07-24T11:35:20;20.70;99.90
10968;DHT22;5536;49.602;10.980;2023-07-24T11:37:49;20.70;99.90
10968;DHT22;5536;49.602;10.980;2023-07-24T11:40:16;20.70;99.90
10968;DHT22;5536;49.602;10.980;2023-07-24T11:42:46;20.90;99.90
10968;DHT22;5536;49.602;10.980;2023-07-24T11:45:14;21.10;99.90
10968;DHT22;5536;49.602;10.980;2023-07-24T11:47:43;21.30;99.90
10968;DHT22;5536;49.602;10.980;2023-07-24T11:50:10;21.30;99.90
10968;DHT22;5536;49.602;10.980;2023-07-24T11:52:41;21.40;99.90
10968;DHT22;5536;49.602;10.980;2023-07-24T11:55:11;21.50;99.90
10968;DHT22;5536;49.602;10.980;2023-07-24T11:57:38;21.70;99.90
10968;DHT22;5536;49.602;10.980;2023-07-24T12:00:16;21.90;99.90
10968;DHT22;5536;49.602;10.980;2023-07-24T12:02:43;22.10;99.90
10968;DHT22;5536;49.602;10.980;2023-07-24T12:05:11;22.10;99.90
10968;DHT22;5536;49.602;10.980;2023-07-24T12:07:38;22.30;99.90
10968;DHT22;5536;49.602;10.980;2023-07-24T12:10:06;22.30;99.90
10968;DHT22;5536;49.602;10.980;2023-07-24T12:12:44;22.50;99.90
10968;DHT22;5536;49.602;10.980;2023-07-24T12:15:11;22.60;99.90
10968;DHT22;5536;49.602;10.980;2023-07-24T12:17:39;22.70;99.90
10968;DHT22;5536;49.602;10.980;2023-07-24T12:20:07;22.80;99.90
10968;DHT22;5536;49.602;10.980;2023-07-24T12:22:35;22.90;99.90
10968;DHT22;5536;49.602;10.980;2023-07-24T12:25:02;22.90;99.90
10968;DHT22;5536;49.602;10.980;2023-07-24T12:27:30;23.00;99.90
10968;DHT22;5536;49.602;10.980;2023-07-24T12:29:59;22.90;99.90
10968;DHT22;5536;49.602;10.980;2023-07-24T12:32:27;23.00;99.90
10968;DHT22;5536;49.602;10.980;2023-07-24T12:34:54;23.00;99.90
10968;DHT22;5536;49.602;10.980;2023-07-24T12:37:21;22.90;99.90
10968;DHT22;5536;49.602;10.980;2023-07-24T12:39:48;22.80;99.90
10968;DHT22;5536;49.602;10.980;2023-07-24T12:42:15;22.80;99.90
10968;DHT22;5536;49.602;10.980;2023-07-24T12:44:43;22.70;99.90
10968;DHT22;5536;49.602;10.980;2023-07-24T12:47:12;22.60;99.90
10968;DHT22;5536;49.602;10.980;2023-07-24T12:49:39;22.50;99.90
10968;DHT22;5536;49.602;10.980;2023-07-24T12:52:06;22.50;99.90
10968;DHT22;5536;49.602;10.980;2023-07-24T12:54:34;22.60;99.90
10968;DHT22;5536;49.602;10.980;2023-07-24T12:57:02;22.70;99.90
10968;DHT22;5536;49.602;10.980;2023-07-24T12:59:29;22.70;99.90
10968;DHT22;5536;49.602;10.980;2023-07-24T13:01:56;22.90;99.90
10968;DHT22;5536;49.602;10.980;2023-07-24T13:04:25;23.20;99.90
10968;DHT22;5536;49.602;10.980;2023-07-24T13:06:51;23.70;99.90
10968;DHT22;5536;49.602;10.980;2023-07-24T13:09:19;24.00;99.90
10968;DHT22;5536;49.602;10.980;2023-07-24T13:11:47;24.60;99.90
10968;DHT22;5536;49.602;10.980;2023-07-24T13:14:16;25.20;99.90
10968;DHT22;5536;49.602;10.980;2023-07-24T13:16:43;25.00;99.90
10968;DHT22;5536;49.602;10.980;2023-07-24T13:19:10;25.10;99.90
10968;DHT22;5536;49.602;10.980;2023-07-24T13:21:39;26.10;99.90
10968;DHT22;5536;49.602;10.980;2023-07-24T13:24:06;27.10;99.90
10968;DHT22;5536;49.602;10.980;2023-07-24T13:26:33;27.50;99.90
10968;DHT22;5536;49.602;10.980;2023-07-24T13:29:01;27.40;99.90
10968;DHT22;5536;49.602;10.980;2023-07-24T13:31:31;27.90;99.90
10968;DHT22;5536;49.602;10.980;2023-07-24T13:33:58;27.30;99.90
10968;DHT22;5536;49.602;10.980;2023-07-24T13:36:25;26.70;99.90
10968;DHT22;5536;49.602;10.980;2023-07-24T13:38:53;26.80;99.90
10968;DHT22;5536;49.602;10.980;2023-07-24T13:41:20;26.70;99.90
10968;DHT22;5536;49.602;10.980;2023-07-24T13:43:47;26.80;99.90
10968;DHT22;5536;49.602;10.980;2023-07-24T13:46:14;27.20;99.90
10968;DHT22;5536;49.602;10.980;2023-07-24T13:48:41;27.30;99.90
10968;DHT22;5536;49.602;10.980;2023-07-24T13:51:08;28.00;99.90
10968;DHT22;5536;49.602;10.980;2023-07-24T13:53:36;28.70;99.90
10968;DHT22;5536;49.602;10.980;2023-07-24T13:56:05;28.70;99.90
10968;DHT22;5536;49.602;10.980;2023-07-24T13:58:32;28.30;99.90
10968;DHT22;5536;49.602;10.980;2023-07-24T14:00:59;28.00;99.90
10968;DHT22;5536;49.602;10.980;2023-07-24T14:03:26;26.90;99.90
10968;DHT22;5536;49.602;10.980;2023-07-24T14:05:55;26.60;99.90
10968;DHT22;5536;49.602;10.980;2023-07-24T14:08:23;26.10;99.90
10968;DHT22;5536;49.602;10.980;2023-07-24T14:10:50;26.00;99.90
10968;DHT22;5536;49.602;10.980;2023-07-24T14:13:19;25.60;99.90
10968;DHT22;5536;49.602;10.980;2023-07-24T14:15:46;25.20;99.90
10968;DHT22;5536;49.602;10.980;2023-07-24T14:18:13;25.60;99.90
10968;DHT22;5536;49.602;10.980;2023-07-24T14:20:40;25.50;99.90
10968;DHT22;5536;49.602;10.980;2023-07-24T14:23:07;25.30;99.90
10968;DHT22;5536;49.602;10.980;2023-07-24T14:25:34;25.10;99.90
10968;DHT22;5536;49.602;10.980;2023-07-24T14:28:01;25.00;99.90
10968;DHT22;5536;49.602;10.980;2023-07-24T14:30:30;24.80;99.90
10968;DHT22;5536;49.602;10.980;2023-07-24T14:32:57;24.80;99.90
10968;DHT22;5536;49.602;10.980;2023-07-24T14:35:24;24.80;99.90
10968;DHT22;5536;49.602;10.980;2023-07-24T14:37:51;24.60;99.90
10968;DHT22;5536;49.602;10.980;2023-07-24T14:40:19;24.60;99.90
10968;DHT22;5536;49.602;10.980;2023-07-24T14:42:46;24.60;99.90
10968;DHT22;5536;49.602;10.980;2023-07-24T14:45:13;25.30;99.90
10968;DHT22;5536;49.602;10.980;2023-07-24T14:47:41;26.30;99.90
10968;DHT22;5536;49.602;10.980;2023-07-24T14:50:09;26.60;99.90
10968;DHT22;5536;49.602;10.980;2023-07-24T14:52:36;27.10;99.90
10968;DHT22;5536;49.602;10.980;2023-07-24T14:55:04;27.00;99.90
10968;DHT22;5536;49.602;10.980;2023-07-24T14:57:31;26.40;99.90
10968;DHT22;5536;49.602;10.980;2023-07-24T14:59:59;26.60;99.90
10968;DHT22;5536;49.602;10.980;2023-07-24T15:02:26;26.80;99.90
10968;DHT22;5536;49.602;10.980;2023-07-24T15:04:54;26.60;99.90
10968;DHT22;5536;49.602;10.980;2023-07-24T15:07:22;26.60;99.90
10968;DHT22;5536;49.602;10.980;2023-07-24T15:09:49;26.70;99.90
10968;DHT22;5536;49.602;10.980;2023-07-24T15:12:16;26.10;99.90
10968;DHT22;5536;49.602;10.980;2023-07-24T15:14:43;26.60;99.90
10968;DHT22;5536;49.602;10.980;2023-07-24T15:17:10;27.00;99.90
10968;DHT22;5536;49.602;10.980;2023-07-24T15:19:40;27.50;99.90
10968;DHT22;5536;49.602;10.980;2023-07-24T15:22:08;27.80;99.90
10968;DHT22;5536;49.602;10.980;2023-07-24T15:24:35;27.30;99.90
10968;DHT22;5536;49.602;10.980;2023-07-24T15:27:03;26.90;99.90
10968;DHT22;5536;49.602;10.980;2023-07-24T15:29:34;26.50;99.90
10968;DHT22;5536;49.602;10.980;2023-07-24T15:32:10;26.50;99.90
10968;DHT22;5536;49.602;10.980;2023-07-24T15:34:38;26.50;99.90
10968;DHT22;5536;49.602;10.980;2023-07-24T15:37:05;26.50;99.90